This is the latest recevied weather packets stored in our database for station/object WA7CUG. If no packets are shown the sender has not sent any weather packets the latest 10 day(s).
| Time | Temp. | Humidity | Pressure | Rain* | Wind** | Luminosity | Snow |
|---|---|---|---|---|---|---|---|
| 1778144548 | 17.22° C | 44% | 1013.1 hPa | 0 mm | - | 0 W/m² | - |
| 1778144245 | 17.22° C | 43% | 1013 hPa | 0 mm | - | 0 W/m² | - |
| 1778143937 | 17.22° C | 43% | 1012.9 hPa | 0 mm | - | 0 W/m² | - |
| 1778143634 | 17.22° C | 43% | 1012.8 hPa | 0 mm | - | 0 W/m² | - |
| 1778143330 | 17.22° C | 43% | 1013 hPa | 0 mm | - | 0 W/m² | - |
| 1778143028 | 17.78° C | 42% | 1013 hPa | 0 mm | - | 0 W/m² | - |
| 1778142724 | 17.78° C | 42% | 1012.6 hPa | 0 mm | - | 0 W/m² | - |
| 1778142420 | 18.33° C | 42% | 1012.7 hPa | 0 mm | - | 0 W/m² | - |
| 1778142116 | 18.33° C | 40% | 1012.7 hPa | 0 mm | - | 0 W/m² | - |
| 1778141812 | 18.33° C | 40% | 1012.6 hPa | 0 mm | - | 0 W/m² | - |
| 1778141503 | 18.89° C | 40% | 1012.6 hPa | 0 mm | - | 0 W/m² | - |
| 1778141200 | 19.44° C | 38% | 1012.5 hPa | 0 mm | - | 0 W/m² | - |
| 1778140896 | 19.44° C | 36% | 1012.6 hPa | 0 mm | - | 0 W/m² | - |
| 1778140592 | 18.89° C | 38% | 1012.7 hPa | 0 mm | - | 0 W/m² | - |
| 1778140288 | 19.44° C | 37% | 1012.6 hPa | 0 mm | - | 0 W/m² | - |
| 1778139985 | 18.33° C | 39% | 1012.2 hPa | 0 mm | - | 0 W/m² | - |
| 1778139683 | 17.78° C | 40% | 1012.2 hPa | 0 mm | - | 0 W/m² | - |
| 1778139379 | 17.78° C | 41% | 1012 hPa | 0 mm | - | 0 W/m² | - |
| 1778139075 | 17.78° C | 41% | 1012.1 hPa | 0 mm | - | 0 W/m² | - |
| 1778138773 | 18.89° C | 39% | 1011.9 hPa | 0 mm | - | 0 W/m² | - |
| 1778138470 | 17.78° C | 41% | 1012.3 hPa | 0 mm | - | 0 W/m² | - |
| 1778138168 | 16.67° C | 44% | 1012.4 hPa | 0 mm | - | 0 W/m² | - |
| 1778137864 | 16.67° C | 46% | 1012.5 hPa | 0 mm | - | 0 W/m² | - |
| 1778137561 | 16.67° C | 46% | 1012.4 hPa | 0 mm | - | 0 W/m² | - |
| 1778137257 | 16.11° C | 49% | 1012.5 hPa | 0 mm | - | 0 W/m² | - |
* Rain latest hour (hover to see other rain measurements)
** Current wind speed in m/s (hover to see current wind gust speed)